Time;durP1;ratioP1;P1;durP2;ratioP2;P2;SDS_P1;SDS_P2;PMS_P1;PMS_P2;Temp;Humidity;BMP_temperature;BMP_pressure;BME280_temperature;BME280_humidity;BME280_pressure;Samples;Min_cycle;Max_cycle;Signal;HPM_P1;HPM_P2
2023/12/04 00:01:16;;;;;;;31.88;18.45;;;1.90;99.90;;;;;;4976874;28;20227;-79
2023/12/04 00:03:44;;;;;;;28.80;19.05;;;1.90;99.90;;;;;;4976971;28;20231;-78
2023/12/04 00:06:13;;;;;;;27.33;19.67;;;1.90;99.90;;;;;;4974783;28;20234;-76
2023/12/04 00:08:40;;;;;;;24.55;17.85;;;1.90;99.90;;;;;;4976170;28;20306;-76
2023/12/04 00:11:07;;;;;;;26.90;17.85;;;1.90;99.90;;;;;;4975651;28;20223;-80
2023/12/04 00:13:35;;;;;;;26.05;18.75;;;1.80;99.90;;;;;;4976627;28;20617;-80
2023/12/04 00:16:04;;;;;;;28.58;18.42;;;1.80;99.90;;;;;;4975936;28;20319;-76
2023/12/04 00:18:33;;;;;;;26.67;18.85;;;1.80;99.90;;;;;;4976787;28;20223;-79
2023/12/04 00:21:00;;;;;;;24.27;16.02;;;1.80;99.90;;;;;;4980220;28;20684;-76
2023/12/04 00:23:27;;;;;;;25.25;17.80;;;1.80;99.90;;;;;;4994971;28;20230;-76
2023/12/04 00:25:56;;;;;;;27.90;18.60;;;1.80;99.90;;;;;;4994682;28;20700;-76
2023/12/04 00:28:23;;;;;;;31.65;19.55;;;1.80;99.90;;;;;;4994523;28;20237;-76
2023/12/04 00:30:53;;;;;;;23.02;16.83;;;1.80;99.90;;;;;;4995018;28;20704;-76
2023/12/04 00:33:21;;;;;;;27.35;19.38;;;1.80;99.90;;;;;;4994144;28;20230;-76
2023/12/04 00:35:48;;;;;;;24.38;19.15;;;1.80;99.90;;;;;;4983846;28;20665;-77
2023/12/04 00:38:15;;;;;;;26.75;17.80;;;1.70;99.90;;;;;;4974278;28;20242;-79
2023/12/04 00:40:42;;;;;;;27.75;19.42;;;1.70;99.90;;;;;;4964646;28;20690;-80
2023/12/04 00:43:09;;;;;;;34.53;20.88;;;1.70;99.90;;;;;;4952525;29;20266;-76
2023/12/04 00:45:37;;;;;;;30.55;19.52;;;1.70;99.90;;;;;;4953921;29;20235;-79
2023/12/04 00:48:04;;;;;;;31.25;20.20;;;1.60;99.90;;;;;;4953174;29;20236;-76
2023/12/04 00:50:32;;;;;;;27.50;18.65;;;1.60;99.90;;;;;;4952858;28;20726;-76
2023/12/04 00:52:59;;;;;;;26.77;19.65;;;1.60;99.90;;;;;;4953556;29;20247;-76
2023/12/04 00:55:25;;;;;;;30.85;19.17;;;1.60;99.90;;;;;;4953571;28;20228;-79
2023/12/04 00:57:52;;;;;;;28.00;22.65;;;1.60;99.90;;;;;;4954488;28;20228;-78
2023/12/04 01:00:23;;;;;;;27.67;19.90;;;1.60;99.90;;;;;;4955406;29;20235;-79
2023/12/04 01:02:50;;;;;;;31.00;21.50;;;1.60;99.90;;;;;;4955782;29;20228;-78
2023/12/04 01:05:17;;;;;;;29.42;20.70;;;1.50;99.90;;;;;;4954618;29;20239;-79
2023/12/04 01:07:46;;;;;;;27.50;19.60;;;1.50;99.90;;;;;;4953865;29;20243;-76
2023/12/04 01:10:15;;;;;;;29.73;20.77;;;1.50;99.90;;;;;;4954098;29;20240;-76
2023/12/04 01:12:42;;;;;;;32.00;21.95;;;1.50;99.90;;;;;;4955363;29;20228;-78
2023/12/04 01:15:10;;;;;;;31.38;21.42;;;1.50;99.90;;;;;;4954855;29;20246;-78
2023/12/04 01:17:37;;;;;;;29.98;19.52;;;1.50;99.90;;;;;;4953777;29;20611;-76
2023/12/04 01:20:05;;;;;;;28.23;19.20;;;1.40;99.90;;;;;;4955814;29;20243;-78
2023/12/04 01:22:32;;;;;;;34.33;20.33;;;1.40;99.90;;;;;;4954709;29;20243;-78
2023/12/04 01:25:00;;;;;;;33.58;21.65;;;1.40;99.90;;;;;;4955623;29;20262;-75
2023/12/04 01:27:27;;;;;;;26.70;20.83;;;1.40;99.90;;;;;;4954480;29;20674;-79
2023/12/04 01:29:57;;;;;;;31.20;21.08;;;1.40;99.90;;;;;;4955730;28;20236;-79
2023/12/04 01:32:24;;;;;;;28.60;20.75;;;1.50;99.90;;;;;;4954617;29;20224;-79
2023/12/04 01:34:51;;;;;;;33.65;21.73;;;1.50;99.90;;;;;;4955833;29;20223;-79
2023/12/04 01:37:18;;;;;;;30.80;21.17;;;1.50;99.90;;;;;;4954766;29;20227;-79
2023/12/04 01:39:45;;;;;;;31.27;20.70;;;1.40;99.90;;;;;;4955486;29;20227;-79
2023/12/04 01:42:15;;;;;;;34.65;22.50;;;1.40;99.90;;;;;;4946118;28;20228;-77
2023/12/04 01:44:42;;;;;;;32.33;21.30;;;1.40;99.90;;;;;;4955555;29;20283;-76
2023/12/04 01:47:10;;;;;;;30.92;21.83;;;1.40;99.90;;;;;;4955389;29;20686;-77
2023/12/04 01:49:38;;;;;;;29.45;19.52;;;1.40;99.90;;;;;;4952201;29;20238;-77
2023/12/04 01:52:07;;;;;;;28.67;21.42;;;1.40;99.90;;;;;;4955244;29;20566;-76
2023/12/04 01:54:34;;;;;;;33.80;20.73;;;1.40;99.90;;;;;;4955027;29;20243;-76
2023/12/04 01:57:02;;;;;;;27.00;20.90;;;1.40;99.90;;;;;;4955190;29;20653;-76
2023/12/04 01:59:31;;;;;;;28.50;20.77;;;1.40;99.90;;;;;;4954721;29;20240;-76
2023/12/04 02:01:58;;;;;;;29.48;20.98;;;1.40;99.90;;;;;;4954568;29;20256;-76
2023/12/04 02:04:26;;;;;;;33.33;22.95;;;1.40;99.90;;;;;;4955158;29;20617;-79
2023/12/04 02:06:53;;;;;;;26.40;19.27;;;1.30;99.90;;;;;;4955396;29;20701;-76
2023/12/04 02:09:20;;;;;;;29.27;21.52;;;1.30;99.90;;;;;;4954436;28;20303;-76
2023/12/04 02:11:48;;;;;;;28.25;20.05;;;1.30;99.90;;;;;;4957987;29;20224;-76
2023/12/04 02:14:17;;;;;;;28.58;19.70;;;1.30;99.90;;;;;;4958722;29;20266;-75
2023/12/04 02:16:46;;;;;;;32.58;18.88;;;1.30;99.90;;;;;;4958338;29;20552;-76
2023/12/04 02:19:14;;;;;;;24.02;18.48;;;1.40;99.90;;;;;;4958069;29;20216;-76
2023/12/04 02:21:41;;;;;;;29.67;20.52;;;1.30;99.90;;;;;;4958101;29;20247;-78
2023/12/04 02:24:10;;;;;;;25.85;19.10;;;1.40;99.90;;;;;;4958861;29;20259;-78
2023/12/04 02:26:54;;;;;;;28.60;19.67;;;1.30;99.90;;;;;;4958127;29;20300;-78
2023/12/04 02:29:25;;;;;;;31.90;21.98;;;1.30;99.90;;;;;;4957809;29;20231;-79
2023/12/04 02:31:52;;;;;;;28.35;18.75;;;1.30;99.90;;;;;;4958196;29;20239;-79
2023/12/04 02:34:21;;;;;;;29.77;19.30;;;1.30;99.90;;;;;;4958495;29;20682;-78
2023/12/04 02:36:59;;;;;;;28.35;20.55;;;1.30;99.90;;;;;;4957460;28;20247;-80
2023/12/04 02:39:27;;;;;;;26.98;18.77;;;1.30;99.90;;;;;;4957834;29;20242;-75
2023/12/04 02:41:54;;;;;;;28.65;18.45;;;1.30;99.90;;;;;;4957914;29;20239;-75
2023/12/04 02:44:21;;;;;;;29.45;20.15;;;1.30;99.90;;;;;;4957995;28;20231;-76
2023/12/04 02:46:48;;;;;;;37.70;23.10;;;1.20;99.90;;;;;;4957519;29;20734;-76
2023/12/04 02:49:16;;;;;;;30.20;20.63;;;1.20;99.90;;;;;;4957448;29;20239;-76
2023/12/04 02:51:43;;;;;;;28.05;19.92;;;1.20;99.90;;;;;;4957292;29;20232;-76
2023/12/04 02:54:10;;;;;;;28.67;19.23;;;1.20;99.90;;;;;;4957969;29;20224;-76
2023/12/04 02:56:38;;;;;;;33.70;20.83;;;1.20;99.90;;;;;;4957249;29;20228;-76
2023/12/04 02:59:05;;;;;;;28.15;19.10;;;1.20;99.90;;;;;;4957685;28;20228;-79
2023/12/04 03:01:32;;;;;;;28.92;19.15;;;1.20;99.90;;;;;;4957084;29;20270;-76
2023/12/04 03:04:02;;;;;;;29.95;18.90;;;1.20;99.90;;;;;;4957883;29;20228;-76
2023/12/04 03:06:29;;;;;;;30.77;18.30;;;1.10;99.90;;;;;;4956868;29;20536;-77
2023/12/04 03:08:57;;;;;;;28.77;19.77;;;1.10;99.90;;;;;;4957487;29;20232;-79
2023/12/04 03:11:24;;;;;;;29.55;18.35;;;1.20;99.90;;;;;;4957322;28;20231;-76
2023/12/04 03:13:53;;;;;;;28.35;18.77;;;1.20;99.90;;;;;;4947701;29;20231;-76
2023/12/04 03:16:19;;;;;;;28.77;18.95;;;1.20;99.90;;;;;;4957335;29;20228;-76
2023/12/04 03:18:49;;;;;;;25.27;19.20;;;1.10;99.90;;;;;;4956771;29;20271;-76
2023/12/04 03:21:20;;;;;;;30.33;21.13;;;1.10;99.90;;;;;;4954948;28;20220;-79
2023/12/04 03:23:47;;;;;;;24.20;18.52;;;1.20;99.90;;;;;;4957285;29;20236;-79
2023/12/04 03:26:15;;;;;;;23.85;17.17;;;1.10;99.90;;;;;;4957300;29;20235;-76
2023/12/04 03:28:42;;;;;;;26.50;19.15;;;1.10;99.90;;;;;;4956668;29;20236;-76
2023/12/04 03:31:10;;;;;;;25.10;19.85;;;1.10;99.90;;;;;;4957469;29;20231;-76
2023/12/04 03:33:37;;;;;;;25.67;19.13;;;1.10;99.90;;;;;;4956629;29;20236;-76
2023/12/04 03:36:05;;;;;;;25.88;19.35;;;1.10;99.90;;;;;;4957266;29;20224;-76
2023/12/04 03:38:32;;;;;;;29.33;18.65;;;1.10;99.90;;;;;;4956980;29;20239;-79
2023/12/04 03:40:59;;;;;;;34.28;20.67;;;1.10;99.90;;;;;;4957094;29;20552;-79
2023/12/04 03:43:26;;;;;;;34.17;20.20;;;1.10;99.90;;;;;;4956986;28;20227;-79
2023/12/04 03:45:53;;;;;;;26.67;18.98;;;1.00;99.90;;;;;;4956871;29;20238;-79
2023/12/04 03:48:23;;;;;;;30.25;21.40;;;1.00;99.90;;;;;;4957085;29;20224;-79
2023/12/04 03:50:50;;;;;;;31.77;21.55;;;1.00;99.90;;;;;;4956628;29;20224;-79
2023/12/04 03:53:17;;;;;;;20.77;16.55;;;0.90;99.90;;;;;;4956942;29;20228;-79
2023/12/04 03:55:44;;;;;;;28.65;20.55;;;0.90;99.90;;;;;;4956712;29;20291;-79
2023/12/04 03:58:11;;;;;;;27.15;19.95;;;1.00;99.90;;;;;;4956614;29;20236;-76
2023/12/04 04:00:40;;;;;;;26.88;17.60;;;1.00;99.90;;;;;;4956155;29;20596;-76
2023/12/04 04:03:08;;;;;;;26.92;19.42;;;1.00;99.90;;;;;;4956570;29;20232;-76
2023/12/04 04:05:37;;;;;;;29.83;17.75;;;1.00;99.90;;;;;;4956745;29;20248;-76
2023/12/04 04:08:05;;;;;;;29.30;19.30;;;1.00;99.90;;;;;;4955472;29;20228;-76
2023/12/04 04:10:32;;;;;;;26.83;17.05;;;1.00;99.90;;;;;;4956912;29;20533;-76
2023/12/04 04:12:59;;;;;;;25.42;18.00;;;1.00;99.90;;;;;;4955949;29;20698;-76
2023/12/04 04:15:26;;;;;;;25.55;18.25;;;1.00;99.90;;;;;;4956538;29;20266;-76
2023/12/04 04:17:53;;;;;;;25.42;17.77;;;1.10;99.90;;;;;;4956160;29;20243;-76
2023/12/04 04:20:20;;;;;;;23.40;17.05;;;1.10;99.90;;;;;;4956700;29;20568;-80
2023/12/04 04:22:49;;;;;;;27.77;18.38;;;1.10;99.90;;;;;;4955857;29;20240;-79
2023/12/04 04:25:16;;;;;;;23.85;18.45;;;1.10;99.90;;;;;;4956343;29;20239;-78
2023/12/04 04:27:43;;;;;;;28.27;18.88;;;1.10;99.90;;;;;;4956258;29;20682;-78
2023/12/04 04:30:13;;;;;;;26.88;17.95;;;1.10;99.90;;;;;;4956067;29;20316;-78
2023/12/04 04:32:40;;;;;;;33.95;20.52;;;1.10;99.90;;;;;;4955031;28;20232;-75
2023/12/04 04:35:08;;;;;;;27.77;17.95;;;1.10;99.90;;;;;;4955871;29;20231;-76
2023/12/04 04:37:35;;;;;;;27.73;18.05;;;1.00;99.90;;;;;;4956205;29;20235;-76
2023/12/04 04:40:04;;;;;;;24.88;18.98;;;1.10;99.90;;;;;;4955554;29;20232;-79
2023/12/04 04:42:31;;;;;;;26.58;18.10;;;1.00;99.90;;;;;;4955944;28;20224;-79
2023/12/04 04:44:58;;;;;;;22.60;16.15;;;1.00;99.90;;;;;;4955434;29;20239;-79
2023/12/04 04:47:27;;;;;;;25.70;18.88;;;1.00;99.90;;;;;;4955682;29;20231;-76
2023/12/04 04:49:54;;;;;;;25.60;16.60;;;1.00;99.90;;;;;;4955369;29;20228;-76
2023/12/04 04:52:21;;;;;;;24.77;16.80;;;1.10;99.90;;;;;;4955889;29;20243;-76
2023/12/04 04:54:48;;;;;;;22.83;17.73;;;1.10;99.90;;;;;;4955318;29;20614;-79
2023/12/04 04:57:16;;;;;;;27.88;18.35;;;1.00;99.90;;;;;;4955695;29;20243;-76
2023/12/04 04:59:43;;;;;;;25.25;17.60;;;1.00;99.90;;;;;;4955051;29;20231;-78
2023/12/04 05:02:11;;;;;;;23.35;16.35;;;1.00;99.90;;;;;;4953971;29;20231;-79
2023/12/04 05:04:38;;;;;;;27.10;18.08;;;1.00;99.90;;;;;;4955357;29;20251;-79
2023/12/04 05:07:05;;;;;;;23.45;16.92;;;1.10;99.90;;;;;;4955187;29;20228;-76
2023/12/04 05:09:32;;;;;;;25.33;16.35;;;1.00;99.90;;;;;;4955094;29;20690;-76
2023/12/04 05:11:59;;;;;;;25.98;17.40;;;1.00;99.90;;;;;;4954862;29;20247;-76
2023/12/04 05:14:28;;;;;;;24.48;18.05;;;1.00;99.90;;;;;;4955601;29;20743;-80
2023/12/04 05:16:56;;;;;;;24.02;17.73;;;1.00;99.90;;;;;;4954990;29;20628;-76
2023/12/04 05:19:23;;;;;;;24.73;17.05;;;1.00;99.90;;;;;;4955782;29;20674;-77
2023/12/04 05:21:50;;;;;;;25.88;18.45;;;1.00;99.90;;;;;;4955331;29;20232;-76
2023/12/04 05:24:17;;;;;;;24.88;17.33;;;1.00;99.90;;;;;;4955004;29;20236;-76
2023/12/04 05:26:44;;;;;;;24.48;16.63;;;1.00;99.90;;;;;;4955686;29;20224;-75
2023/12/04 05:29:11;;;;;;;21.30;16.25;;;1.00;99.90;;;;;;4954259;29;20310;-76
2023/12/04 05:31:40;;;;;;;22.52;16.77;;;1.00;99.90;;;;;;4955666;29;20254;-79
2023/12/04 05:34:06;;;;;;;19.42;14.60;;;1.00;99.90;;;;;;4954989;29;20228;-80
2023/12/04 05:36:33;;;;;;;24.17;17.63;;;1.00;99.90;;;;;;4955754;29;20228;-80
2023/12/04 05:39:00;;;;;;;21.83;15.30;;;1.00;99.90;;;;;;4944525;28;20228;-79
2023/12/04 05:41:27;;;;;;;21.35;15.73;;;1.00;99.90;;;;;;4955448;29;20235;-79
2023/12/04 05:43:54;;;;;;;25.98;18.48;;;1.00;99.90;;;;;;4954862;28;20243;-75
2023/12/04 05:46:22;;;;;;;21.00;15.30;;;1.00;99.90;;;;;;4958794;29;20224;-80
2023/12/04 05:48:50;;;;;;;25.90;16.83;;;1.00;99.90;;;;;;4959299;29;20731;-75
2023/12/04 05:51:17;;;;;;;22.13;14.60;;;1.00;99.90;;;;;;4958884;29;20239;-76
2023/12/04 05:53:44;;;;;;;21.25;15.25;;;1.10;99.90;;;;;;4958155;29;20251;-76
2023/12/04 05:56:12;;;;;;;22.45;17.27;;;1.00;99.90;;;;;;4958324;29;20239;-76
2023/12/04 05:58:39;;;;;;;23.65;16.90;;;0.90;99.90;;;;;;4959226;29;20685;-76
2023/12/04 06:03:47;;;;;;;20.08;15.52;;;0.90;99.90;;;;;;4956586;29;20228;-79
2023/12/04 06:06:15;;;;;;;22.20;17.27;;;0.90;99.90;;;;;;4958378;29;20232;-80
2023/12/04 06:08:42;;;;;;;26.33;18.40;;;1.00;99.90;;;;;;4958862;29;20231;-81
2023/12/04 06:11:10;;;;;;;27.30;17.83;;;0.90;99.90;;;;;;4958364;29;20571;-80
2023/12/04 06:13:36;;;;;;;24.65;16.77;;;0.90;99.90;;;;;;4958624;29;20302;-77
2023/12/04 06:16:04;;;;;;;26.70;17.63;;;0.90;99.90;;;;;;4957965;29;20679;-77
2023/12/04 06:18:31;;;;;;;22.48;16.58;;;0.80;99.90;;;;;;4958187;29;20235;-78
2023/12/04 06:20:58;;;;;;;25.38;17.52;;;0.80;99.90;;;;;;4958213;29;20240;-77
2023/12/04 06:23:27;;;;;;;26.38;16.80;;;0.70;99.90;;;;;;4958482;29;20224;-77
2023/12/04 06:25:55;;;;;;;24.40;17.88;;;0.70;99.90;;;;;;4958318;29;20223;-76
2023/12/04 06:28:22;;;;;;;25.67;17.88;;;0.70;99.90;;;;;;4958277;29;20319;-78
2023/12/04 06:30:50;;;;;;;24.73;18.85;;;0.60;99.90;;;;;;4958452;29;20662;-79
2023/12/04 06:33:22;;;;;;;27.13;18.38;;;0.60;99.90;;;;;;4958035;28;20240;-77
2023/12/04 06:35:49;;;;;;;28.30;18.70;;;0.70;99.90;;;;;;4958331;29;20319;-79
2023/12/04 06:38:17;;;;;;;24.45;17.08;;;0.60;99.90;;;;;;4957865;29;20333;-79
2023/12/04 06:40:46;;;;;;;23.27;15.75;;;0.60;99.90;;;;;;4958557;29;20274;-76
2023/12/04 06:43:15;;;;;;;28.00;18.63;;;0.60;99.90;;;;;;4957161;29;20251;-76
2023/12/04 06:45:43;;;;;;;23.80;17.35;;;0.60;99.90;;;;;;4958090;29;20295;-77
2023/12/04 06:48:13;;;;;;;21.85;17.15;;;0.70;99.90;;;;;;4957657;29;20274;-76
2023/12/04 06:50:40;;;;;;;22.77;17.52;;;0.70;99.90;;;;;;4957906;29;20243;-77
2023/12/04 06:53:07;;;;;;;23.20;16.90;;;0.70;99.90;;;;;;4957318;29;20236;-76
2023/12/04 06:55:34;;;;;;;24.20;16.00;;;0.80;99.90;;;;;;4957954;28;20236;-78
2023/12/04 06:58:02;;;;;;;26.25;16.35;;;0.70;99.90;;;;;;4957540;29;20236;-78
2023/12/04 07:00:29;;;;;;;21.27;15.68;;;0.80;99.90;;;;;;4957571;29;20231;-77
2023/12/04 07:02:57;;;;;;;23.50;15.93;;;0.80;99.90;;;;;;4957625;29;20236;-76
2023/12/04 07:05:24;;;;;;;28.52;17.27;;;0.90;99.90;;;;;;4956802;29;20232;-79
2023/12/04 07:07:51;;;;;;;23.77;16.25;;;0.90;99.90;;;;;;4957980;29;20236;-79
2023/12/04 07:10:19;;;;;;;24.38;16.23;;;1.00;99.90;;;;;;4957069;29;20228;-79
2023/12/04 07:12:46;;;;;;;22.58;15.77;;;1.00;99.90;;;;;;4956887;28;20601;-79
2023/12/04 07:15:15;;;;;;;29.73;15.90;;;1.00;99.90;;;;;;4956489;28;20232;-77
2023/12/04 07:17:42;;;;;;;22.13;16.13;;;1.00;99.90;;;;;;4957777;29;20228;-79
2023/12/04 07:20:11;;;;;;;22.90;15.93;;;0.90;99.90;;;;;;4957141;29;20231;-76
2023/12/04 07:22:38;;;;;;;26.83;17.15;;;1.00;99.90;;;;;;4957559;29;20232;-77
2023/12/04 07:25:06;;;;;;;24.80;15.90;;;1.10;99.90;;;;;;4957251;29;20232;-77
2023/12/04 07:27:34;;;;;;;22.27;14.70;;;1.10;99.90;;;;;;4957815;29;20295;-79
2023/12/04 07:30:02;;;;;;;25.73;17.85;;;1.10;99.90;;;;;;4957396;29;20244;-79
2023/12/04 07:32:30;;;;;;;22.92;16.90;;;1.10;99.90;;;;;;4956719;29;20232;-76
2023/12/04 07:34:58;;;;;;;24.60;16.70;;;1.10;99.90;;;;;;4957342;29;20228;-76
2023/12/04 07:37:26;;;;;;;22.38;14.75;;;1.20;99.90;;;;;;4957236;29;20247;-79
2023/12/04 07:39:53;;;;;;;22.77;16.95;;;1.20;99.90;;;;;;4957107;29;20247;-77
2023/12/04 07:42:20;;;;;;;23.13;14.55;;;1.20;99.90;;;;;;4956494;29;20232;-79
2023/12/04 07:44:48;;;;;;;22.95;15.82;;;1.20;99.90;;;;;;4957475;29;20228;-79
2023/12/04 07:47:15;;;;;;;22.17;16.75;;;1.20;99.90;;;;;;4956711;29;20235;-79
2023/12/04 07:49:45;;;;;;;23.10;15.63;;;1.20;99.90;;;;;;4957004;29;20713;-80
2023/12/04 07:52:12;;;;;;;24.60;16.40;;;1.20;99.90;;;;;;4956461;28;20232;-80
2023/12/04 07:54:39;;;;;;;24.73;15.80;;;1.20;99.90;;;;;;4956870;29;20239;-77
2023/12/04 07:57:06;;;;;;;23.25;16.70;;;1.30;99.90;;;;;;4957025;29;20561;-77
2023/12/04 07:59:34;;;;;;;24.92;16.80;;;1.30;99.90;;;;;;4956110;29;20273;-80
2023/12/04 08:02:01;;;;;;;19.15;15.77;;;1.30;99.90;;;;;;4956651;29;20238;-79
2023/12/04 08:04:28;;;;;;;23.15;16.67;;;1.40;99.90;;;;;;4956341;29;20227;-77
2023/12/04 08:06:57;;;;;;;21.30;14.48;;;1.40;99.90;;;;;;4956286;28;20232;-79
2023/12/04 08:09:24;;;;;;;21.50;16.65;;;1.40;99.90;;;;;;4955576;29;20314;-79
2023/12/04 08:11:52;;;;;;;23.98;18.20;;;1.40;99.90;;;;;;4956780;29;20745;-79
2023/12/04 08:14:19;;;;;;;22.58;15.98;;;1.40;99.90;;;;;;4956452;29;20287;-78
2023/12/04 08:16:46;;;;;;;21.95;16.10;;;1.40;99.90;;;;;;4956626;29;20228;-80
2023/12/04 08:19:13;;;;;;;21.42;15.60;;;1.40;99.90;;;;;;4956030;29;20224;-79
2023/12/04 08:21:40;;;;;;;20.90;17.20;;;1.50;99.90;;;;;;4956557;29;20670;-79
2023/12/04 08:24:08;;;;;;;21.85;15.68;;;1.50;99.90;;;;;;4956553;29;20228;-79
2023/12/04 08:26:36;;;;;;;19.35;14.50;;;1.50;99.90;;;;;;4956034;29;20220;-79
2023/12/04 08:29:03;;;;;;;22.20;16.88;;;1.50;99.90;;;;;;4954591;29;20220;-79
2023/12/04 08:31:30;;;;;;;24.48;15.15;;;1.40;99.90;;;;;;4955715;29;20243;-79
2023/12/04 08:33:57;;;;;;;21.85;15.52;;;1.50;99.90;;;;;;4956405;29;20235;-76
2023/12/04 08:36:24;;;;;;;21.13;14.93;;;1.40;99.90;;;;;;4955973;29;20228;-77
2023/12/04 08:38:51;;;;;;;18.77;14.65;;;1.40;99.90;;;;;;4956229;29;20224;-76
2023/12/04 08:41:19;;;;;;;18.83;15.00;;;1.50;99.90;;;;;;4955860;29;20232;-76
2023/12/04 08:43:46;;;;;;;23.58;16.42;;;1.60;99.90;;;;;;4955140;28;20232;-79
2023/12/04 08:46:14;;;;;;;21.63;15.32;;;1.50;99.90;;;;;;4955446;29;20251;-76
2023/12/04 08:48:41;;;;;;;22.60;17.58;;;1.50;99.90;;;;;;4956065;28;20243;-76
2023/12/04 08:51:09;;;;;;;20.83;16.75;;;1.60;99.90;;;;;;4955960;29;20298;-79
2023/12/04 08:53:36;;;;;;;24.83;16.40;;;1.60;99.90;;;;;;4954732;29;20299;-79
2023/12/04 08:56:04;;;;;;;23.05;15.10;;;1.60;99.90;;;;;;4956478;29;20231;-79
2023/12/04 08:58:32;;;;;;;25.95;16.02;;;1.60;99.90;;;;;;4955401;29;20232;-76
2023/12/04 09:00:59;;;;;;;25.48;16.38;;;1.70;99.90;;;;;;4955409;29;20688;-76
2023/12/04 09:03:26;;;;;;;19.02;14.85;;;1.70;99.90;;;;;;4955382;29;20311;-79
2023/12/04 09:05:55;;;;;;;21.65;15.52;;;1.70;99.90;;;;;;4955367;29;20319;-76
2023/12/04 09:08:23;;;;;;;23.75;14.88;;;1.70;99.90;;;;;;4955087;29;20232;-76
2023/12/04 09:10:50;;;;;;;20.83;15.38;;;1.80;99.90;;;;;;4956251;29;20611;-76
2023/12/04 09:13:18;;;;;;;16.80;12.00;;;1.80;99.90;;;;;;4954432;29;20251;-79
2023/12/04 09:15:47;;;;;;;24.80;15.40;;;1.90;99.90;;;;;;4955651;29;20235;-79
2023/12/04 09:18:15;;;;;;;22.92;16.17;;;1.90;99.90;;;;;;4957386;28;21429;-79
2023/12/04 09:20:43;;;;;;;22.67;15.93;;;1.90;99.90;;;;;;4971262;28;20246;-79
2023/12/04 09:23:10;;;;;;;22.50;15.52;;;1.90;99.90;;;;;;4974553;28;20533;-79
2023/12/04 09:25:37;;;;;;;22.42;16.70;;;2.00;99.90;;;;;;4973650;28;20231;-79
2023/12/04 09:28:05;;;;;;;17.98;13.63;;;2.10;99.90;;;;;;4974396;28;20238;-77
2023/12/04 09:30:32;;;;;;;22.02;13.68;;;2.00;99.90;;;;;;4974347;28;20234;-80
2023/12/04 09:33:00;;;;;;;16.63;13.68;;;2.10;99.90;;;;;;4974087;28;20231;-80
2023/12/04 09:35:27;;;;;;;17.95;13.95;;;2.10;99.90;;;;;;4973789;28;20665;-77
2023/12/04 09:37:54;;;;;;;19.48;14.40;;;2.10;99.90;;;;;;4974386;28;20574;-82
2023/12/04 09:40:22;;;;;;;21.10;15.15;;;2.10;99.90;;;;;;4973146;28;20531;-78
2023/12/04 09:42:49;;;;;;;18.88;13.88;;;2.10;99.90;;;;;;4979219;28;20237;-78
2023/12/04 09:45:16;;;;;;;19.90;14.23;;;2.10;99.90;;;;;;4984140;28;20235;-77
2023/12/04 09:47:44;;;;;;;20.67;14.55;;;2.20;99.90;;;;;;4974160;28;20224;-78
2023/12/04 09:50:13;;;;;;;19.63;14.90;;;2.20;99.90;;;;;;4974505;28;20310;-77
2023/12/04 09:52:40;;;;;;;25.63;14.63;;;2.30;99.90;;;;;;4973953;28;20231;-77
2023/12/04 09:55:07;;;;;;;22.17;14.80;;;2.30;99.90;;;;;;4974533;28;20223;-77
2023/12/04 09:57:35;;;;;;;21.05;14.85;;;2.40;99.90;;;;;;4976959;28;20306;-77
2023/12/04 10:00:06;;;;;;;21.27;15.63;;;2.40;99.90;;;;;;4990829;28;20219;-77
2023/12/04 10:02:33;;;;;;;21.20;16.20;;;2.30;99.90;;;;;;4977912;28;20223;-78
2023/12/04 10:05:00;;;;;;;20.95;16.10;;;2.40;99.90;;;;;;4974755;28;20277;-81
2023/12/04 10:07:29;;;;;;;19.17;13.90;;;2.40;99.90;;;;;;4974119;28;20223;-82
2023/12/04 10:09:55;;;;;;;22.33;15.80;;;2.40;99.90;;;;;;4988429;28;20227;-82
2023/12/04 10:12:22;;;;;;;26.05;18.98;;;2.40;99.90;;;;;;4975199;28;20593;-81
2023/12/04 10:15:04;;;;;;;21.13;14.77;;;2.40;99.90;;;;;;4974673;28;20247;-81
2023/12/04 10:17:37;;;;;;;18.95;15.15;;;2.40;99.90;;;;;;4974237;28;20243;-78
2023/12/04 10:20:24;;;;;;;20.90;15.82;;;2.40;99.90;;;;;;4969353;28;20220;-77
2023/12/04 10:22:56;;;;;;;19.92;15.10;;;2.40;99.90;;;;;;4955231;28;20227;-78
2023/12/04 10:25:25;;;;;;;19.80;14.73;;;2.40;99.90;;;;;;4955360;28;20267;-81
2023/12/04 10:27:53;;;;;;;19.00;13.88;;;2.40;99.90;;;;;;4970252;28;20220;-81
2023/12/04 10:30:26;;;;;;;16.85;12.63;;;2.40;99.90;;;;;;4974415;28;20246;-81
2023/12/04 10:32:55;;;;;;;18.10;13.50;;;2.50;99.90;;;;;;4977304;28;20232;-77
2023/12/04 10:35:23;;;;;;;20.35;14.88;;;2.50;99.90;;;;;;4977803;28;20618;-77
2023/12/04 10:37:55;;;;;;;19.92;13.20;;;2.60;99.90;;;;;;4977229;28;20623;-77
2023/12/04 10:40:26;;;;;;;18.65;13.50;;;2.60;99.90;;;;;;4977856;28;20219;-77
2023/12/04 10:43:11;;;;;;;16.33;13.88;;;2.70;99.90;;;;;;4976809;28;20231;-76
2023/12/04 10:45:39;;;;;;;16.67;13.50;;;2.60;99.90;;;;;;4965855;28;20693;-77
2023/12/04 10:48:07;;;;;;;17.90;12.43;;;2.70;99.90;;;;;;4977259;28;20237;-77
2023/12/04 10:50:35;;;;;;;16.63;14.05;;;2.60;99.90;;;;;;4957973;28;20310;-77
2023/12/04 10:53:04;;;;;;;17.52;13.00;;;2.60;99.90;;;;;;4961717;28;20253;-77
2023/12/04 10:55:31;;;;;;;18.55;14.35;;;2.70;99.90;;;;;;4972966;28;20310;-77
2023/12/04 10:58:01;;;;;;;19.73;15.20;;;2.70;99.90;;;;;;4976577;28;20227;-77
2023/12/04 11:00:31;;;;;;;18.33;14.13;;;2.70;99.90;;;;;;4972063;28;20223;-77
2023/12/04 11:03:07;;;;;;;16.95;14.10;;;2.70;99.90;;;;;;4976161;28;20738;-77
2023/12/04 11:05:37;;;;;;;19.60;14.57;;;2.70;99.90;;;;;;4976977;28;20242;-77
2023/12/04 11:08:08;;;;;;;17.75;13.20;;;2.70;99.90;;;;;;4976321;28;20234;-80
2023/12/04 11:10:43;;;;;;;15.05;13.45;;;2.70;99.90;;;;;;4976740;28;20546;-79
2023/12/04 11:13:16;;;;;;;17.48;14.05;;;2.60;99.90;;;;;;4976539;28;20261;-79
2023/12/04 11:15:50;;;;;;;17.15;13.50;;;2.70;99.90;;;;;;4976951;28;20557;-79
2023/12/04 11:18:18;;;;;;;17.88;14.18;;;2.60;99.90;;;;;;4976320;28;20223;-79
2023/12/04 11:20:51;;;;;;;18.33;13.05;;;2.70;99.90;;;;;;4973159;28;20216;-79
2023/12/04 11:23:19;;;;;;;16.65;14.27;;;2.60;99.90;;;;;;4956743;29;20224;-79
2023/12/04 11:25:48;;;;;;;16.65;13.23;;;2.70;99.90;;;;;;4965470;28;20223;-79
2023/12/04 11:28:16;;;;;;;15.20;12.20;;;2.70;99.90;;;;;;4975822;28;20404;-79
2023/12/04 11:30:45;;;;;;;16.63;12.90;;;2.70;99.90;;;;;;4976672;28;20278;-79
2023/12/04 11:33:16;;;;;;;14.23;11.68;;;2.70;99.90;;;;;;4975606;28;20254;-79
2023/12/04 11:35:43;;;;;;;18.30;12.77;;;2.70;99.90;;;;;;4976123;28;20690;-79
2023/12/04 11:38:14;;;;;;;16.63;12.07;;;2.70;99.90;;;;;;4976040;28;20231;-79
2023/12/04 11:40:43;;;;;;;16.95;12.60;;;2.70;99.90;;;;;;4976349;28;20227;-79
2023/12/04 11:43:24;;;;;;;15.60;11.23;;;2.80;99.90;;;;;;4974788;28;20343;-79
2023/12/04 11:45:51;;;;;;;17.95;13.10;;;2.80;99.90;;;;;;4974851;28;20583;-79
2023/12/04 11:48:23;;;;;;;13.23;10.25;;;2.80;99.90;;;;;;4975610;28;20219;-79
2023/12/04 11:50:51;;;;;;;19.30;14.57;;;2.80;99.90;;;;;;4978136;28;20223;-79
2023/12/04 11:53:18;;;;;;;16.40;11.85;;;2.80;99.90;;;;;;4975384;28;20231;-79
2023/12/04 11:55:47;;;;;;;16.15;12.13;;;2.80;99.90;;;;;;4976941;28;20255;-79
2023/12/04 11:58:14;;;;;;;14.80;12.05;;;2.80;99.90;;;;;;4973375;28;20612;-79
2023/12/04 12:00:43;;;;;;;15.30;11.55;;;2.80;99.90;;;;;;4977872;28;20681;-79
2023/12/04 12:03:10;;;;;;;16.38;12.60;;;2.80;99.90;;;;;;4975301;28;20243;-79
2023/12/04 12:05:40;;;;;;;16.45;11.75;;;2.90;99.90;;;;;;4976164;28;20559;-79
2023/12/04 12:08:09;;;;;;;13.25;11.32;;;2.80;99.90;;;;;;4975489;28;20254;-79
2023/12/04 12:10:36;;;;;;;13.52;10.75;;;2.70;99.90;;;;;;4977889;28;20231;-77
2023/12/04 12:13:06;;;;;;;18.58;13.30;;;2.80;99.90;;;;;;4994753;28;20265;-77
2023/12/04 12:15:34;;;;;;;14.95;11.40;;;2.80;99.90;;;;;;4995565;28;20269;-77
2023/12/04 12:18:01;;;;;;;13.05;10.60;;;2.80;99.90;;;;;;4994648;28;20240;-77
2023/12/04 12:20:28;;;;;;;13.10;10.43;;;2.80;99.90;;;;;;4992693;28;20317;-77
2023/12/04 12:22:55;;;;;;;15.25;11.93;;;2.80;99.90;;;;;;4981814;28;20673;-77
2023/12/04 12:25:22;;;;;;;14.00;12.20;;;2.70;99.90;;;;;;4994418;28;20223;-77
2023/12/04 12:27:49;;;;;;;14.18;12.15;;;2.70;99.90;;;;;;4983971;28;20228;-77
2023/12/04 12:30:21;;;;;;;14.80;12.20;;;2.70;99.90;;;;;;4974657;28;20231;-78
2023/12/04 12:32:48;;;;;;;19.27;11.45;;;2.70;99.90;;;;;;4975481;28;20310;-77
2023/12/04 12:35:15;;;;;;;17.52;12.35;;;2.80;99.90;;;;;;4974994;28;20228;-77
2023/12/04 12:37:46;;;;;;;16.25;11.85;;;2.90;99.90;;;;;;4975525;28;20231;-77
2023/12/04 12:40:13;;;;;;;15.32;11.18;;;2.80;99.90;;;;;;4974643;28;20238;-77
2023/12/04 12:42:43;;;;;;;13.30;11.20;;;2.90;99.90;;;;;;4975326;28;20319;-77